createdAt,value
2022-10-30T00:02:54.074Z,13.80
2022-10-30T00:05:21.094Z,14.70
2022-10-30T00:07:48.847Z,14.70
2022-10-30T00:10:16.623Z,13.50
2022-10-30T00:15:11.044Z,15.50
2022-10-30T00:17:37.994Z,15.70
2022-10-30T00:20:05.366Z,14.50
2022-10-30T00:22:32.295Z,16.00
2022-10-30T00:24:59.116Z,15.10
2022-10-30T00:27:25.997Z,15.60
2022-10-30T00:42:13.523Z,14.40
2022-10-30T00:44:49.812Z,13.70
2022-10-30T00:47:28.010Z,14.60
2022-10-30T00:50:05.947Z,13.20
2022-10-30T00:52:37.229Z,18.10
2022-10-30T00:55:11.779Z,13.10
2022-10-30T00:57:39.664Z,14.30
2022-10-30T01:00:07.977Z,14.10
2022-10-30T01:05:06.008Z,14.10
2022-10-30T01:14:56.940Z,13.80
2022-10-30T01:17:48.520Z,12.80
2022-10-30T01:20:55.523Z,14.00
2022-10-30T01:23:30.759Z,13.50
2022-10-30T01:26:09.547Z,12.80
2022-10-30T01:28:46.604Z,13.40
2022-10-30T01:31:23.524Z,13.90
2022-10-30T01:34:13.464Z,13.20
2022-10-30T01:36:46.027Z,13.80
2022-10-30T01:39:34.756Z,12.70
2022-10-30T01:42:27.711Z,13.90
2022-10-30T01:44:55.638Z,13.80
2022-10-30T01:47:48.837Z,12.60
2022-10-30T01:50:34.135Z,12.70
2022-10-30T01:53:17.508Z,13.80
2022-10-30T01:56:17.062Z,13.80
2022-10-30T01:59:15.534Z,14.70
2022-10-30T02:04:12.252Z,12.40
2022-10-30T02:06:40.022Z,12.50
2022-10-30T02:11:38.678Z,12.40
2022-10-30T02:14:07.830Z,13.30
2022-10-30T02:16:39.067Z,13.60
2022-10-30T02:21:34.651Z,12.30
2022-10-30T02:28:56.217Z,12.40
2022-10-30T02:43:42.877Z,14.80
2022-10-30T02:48:37.408Z,14.70
2022-10-30T02:51:05.383Z,13.40
2022-10-30T02:53:33.739Z,13.40
2022-10-30T02:56:12.889Z,13.40
2022-10-30T03:01:12.215Z,13.40
2022-10-30T03:06:09.230Z,13.40
2022-10-30T03:08:36.884Z,14.70
2022-10-30T03:11:08.609Z,13.30
2022-10-30T03:16:05.378Z,13.30
2022-10-30T03:18:33.688Z,12.20
2022-10-30T03:21:08.684Z,13.20
2022-10-30T03:23:36.554Z,13.20
2022-10-30T03:26:04.709Z,13.20
2022-10-30T03:31:13.362Z,12.00
2022-10-30T03:33:41.059Z,13.10
2022-10-30T03:36:09.618Z,12.10
2022-10-30T03:38:36.976Z,12.20
2022-10-30T03:41:04.950Z,13.70
2022-10-30T03:48:29.002Z,13.10
2022-10-30T03:50:59.551Z,13.10
2022-10-30T03:53:29.034Z,13.00
2022-10-30T03:56:01.371Z,12.90
2022-10-30T04:01:07.694Z,12.90
2022-10-30T04:03:38.698Z,12.40
2022-10-30T04:11:03.391Z,12.10
2022-10-30T04:23:22.783Z,12.90
2022-10-30T04:30:47.415Z,12.20
2022-10-30T04:33:16.462Z,13.40
2022-10-30T04:38:15.982Z,12.70
2022-10-30T04:43:13.890Z,13.50
2022-10-30T04:45:41.984Z,12.90
2022-10-30T04:48:12.578Z,12.80
2022-10-30T04:53:11.795Z,12.80
2022-10-30T05:03:22.319Z,11.50
2022-10-30T05:05:57.581Z,12.70
2022-10-30T05:25:37.163Z,12.00
2022-10-30T05:28:07.124Z,13.20
2022-10-30T05:40:41.175Z,13.40
2022-10-30T05:48:07.369Z,12.60
2022-10-30T05:55:57.467Z,11.70
2022-10-30T06:06:04.018Z,13.80
2022-10-30T06:29:27.789Z,13.00
2022-10-30T06:39:18.972Z,13.40
2022-10-30T06:47:37.831Z,11.60
2022-10-30T06:50:06.680Z,13.50
2022-10-30T06:52:34.955Z,12.40
2022-10-30T06:57:54.782Z,11.60
2022-10-30T07:00:47.209Z,11.80
2022-10-30T07:06:09.178Z,11.50
2022-10-30T07:21:32.428Z,13.50
2022-10-30T07:29:47.893Z,14.70
2022-10-30T07:35:15.175Z,14.10
2022-10-30T07:38:10.441Z,13.80
2022-10-30T07:40:44.702Z,12.20
2022-10-30T07:43:30.167Z,12.80
2022-10-30T07:51:40.979Z,13.40
2022-10-30T08:02:10.305Z,15.10
2022-10-30T08:10:11.503Z,16.60
2022-10-30T08:12:40.499Z,15.90
2022-10-30T08:15:08.329Z,15.60
2022-10-30T08:17:42.840Z,14.60
2022-10-30T08:20:10.720Z,17.50
2022-10-30T08:22:48.456Z,18.00
2022-10-30T08:25:16.859Z,16.70
2022-10-30T08:28:11.828Z,15.50
2022-10-30T08:33:15.853Z,18.30
2022-10-30T08:36:09.288Z,18.10
2022-10-30T08:46:17.688Z,18.80
2022-10-30T08:48:44.524Z,19.20
2022-10-30T09:12:31.952Z,20.90
2022-10-30T09:17:28.761Z,19.70
2022-10-30T09:19:55.625Z,18.50
2022-10-30T09:22:32.925Z,19.50
2022-10-30T09:24:59.931Z,21.20
2022-10-30T09:27:47.016Z,20.70
2022-10-30T09:30:15.510Z,21.90
2022-10-30T09:32:45.075Z,19.30
2022-10-30T09:37:44.900Z,19.70
2022-10-30T09:40:40.125Z,20.00
2022-10-30T09:43:36.737Z,20.30
2022-10-30T09:46:13.453Z,20.70
2022-10-30T09:48:58.911Z,20.40
2022-10-30T09:51:48.742Z,20.00
2022-10-30T09:54:23.605Z,19.90
2022-10-30T09:57:20.566Z,20.40
2022-10-30T10:00:25.770Z,20.40
2022-10-30T10:03:21.674Z,20.40
2022-10-30T10:06:15.824Z,20.90
2022-10-30T10:09:08.009Z,21.90
2022-10-30T10:12:07.892Z,20.80
2022-10-30T10:14:43.784Z,21.70
2022-10-30T10:17:20.049Z,22.60
2022-10-30T10:19:59.712Z,24.10
2022-10-30T10:22:37.623Z,21.60
2022-10-30T10:25:09.483Z,23.30
2022-10-30T10:27:42.142Z,24.00
2022-10-30T10:30:12.452Z,22.40
2022-10-30T10:33:07.373Z,24.20
2022-10-30T10:36:26.159Z,25.60
2022-10-30T10:39:19.857Z,24.90
2022-10-30T10:41:59.227Z,26.70
2022-10-30T10:44:57.613Z,25.60
2022-10-30T10:48:02.427Z,25.90
2022-10-30T10:50:53.173Z,25.10
2022-10-30T10:53:29.779Z,27.40
2022-10-30T10:56:00.535Z,27.00
2022-10-30T10:58:45.546Z,27.50
2022-10-30T11:01:17.448Z,29.20
2022-10-30T11:03:58.532Z,28.20
2022-10-30T11:06:32.305Z,29.20
2022-10-30T11:09:17.317Z,27.50
2022-10-30T11:11:44.571Z,27.90
2022-10-30T11:14:17.880Z,28.40
2022-10-30T11:17:06.041Z,29.30
2022-10-30T11:19:33.072Z,29.70
2022-10-30T11:22:02.211Z,29.70
2022-10-30T11:24:33.903Z,29.90
2022-10-30T11:27:30.708Z,30.20
2022-10-30T11:30:02.538Z,30.50
2022-10-30T11:32:34.284Z,31.30
2022-10-30T11:35:10.221Z,30.30
2022-10-30T11:37:39.103Z,29.30
2022-10-30T11:40:11.980Z,30.60
2022-10-30T11:42:46.549Z,30.50
2022-10-30T11:45:26.466Z,29.40
2022-10-30T11:47:56.109Z,30.10
2022-10-30T11:50:29.302Z,30.00
2022-10-30T11:53:00.103Z,31.20
2022-10-30T11:55:47.777Z,30.50
2022-10-30T11:58:43.969Z,28.40
2022-10-30T12:01:24.847Z,29.30
2022-10-30T12:03:53.531Z,29.20
2022-10-30T12:06:27.720Z,29.30
2022-10-30T12:09:01.902Z,28.20
2022-10-30T12:11:31.576Z,25.30
2022-10-30T12:16:26.902Z,26.00
2022-10-30T12:19:06.752Z,27.10
2022-10-30T12:21:40.149Z,25.00
2022-10-30T12:24:38.998Z,25.40
2022-10-30T12:27:18.178Z,25.30
2022-10-30T12:30:10.010Z,23.20
2022-10-30T12:32:47.915Z,24.50
2022-10-30T12:35:23.394Z,22.70
2022-10-30T12:37:54.170Z,23.10
2022-10-30T12:40:25.530Z,23.70
2022-10-30T12:43:15.521Z,22.30
2022-10-30T12:45:45.812Z,22.20
2022-10-30T12:48:24.770Z,22.20
2022-10-30T12:51:12.899Z,23.60
2022-10-30T12:54:02.852Z,25.00
2022-10-30T12:56:35.930Z,23.60
2022-10-30T12:59:35.859Z,20.00
2022-10-30T13:02:28.473Z,24.80
2022-10-30T13:05:00.512Z,24.80
2022-10-30T13:07:45.292Z,24.90
2022-10-30T13:10:31.793Z,24.40
2022-10-30T13:13:10.417Z,23.60
2022-10-30T13:15:44.924Z,23.00
2022-10-30T13:18:17.208Z,23.80
2022-10-30T13:20:54.242Z,23.30
2022-10-30T13:23:28.253Z,23.80
2022-10-30T13:26:11.285Z,23.70
2022-10-30T13:28:51.851Z,23.60
2022-10-30T13:31:37.208Z,23.50
2022-10-30T13:34:11.846Z,23.60
2022-10-30T13:37:01.635Z,22.40
2022-10-30T13:39:37.783Z,23.80
2022-10-30T13:42:36.916Z,24.90
2022-10-30T13:45:27.188Z,22.60
2022-10-30T13:48:09.223Z,23.80
2022-10-30T13:50:56.274Z,23.30
2022-10-30T13:53:28.684Z,23.60
2022-10-30T13:55:56.362Z,22.40
2022-10-30T13:58:35.476Z,23.40
2022-10-30T14:01:23.784Z,23.70
2022-10-30T14:04:05.631Z,23.30
2022-10-30T14:07:24.658Z,22.90
2022-10-30T14:10:03.038Z,19.30
2022-10-30T14:12:49.687Z,21.70
2022-10-30T14:15:32.327Z,23.10
2022-10-30T14:18:14.261Z,23.20
2022-10-30T14:20:46.366Z,23.00
2022-10-30T14:23:27.223Z,23.30
2022-10-30T14:26:05.767Z,22.70
2022-10-30T14:28:37.988Z,24.30
2022-10-30T14:31:10.865Z,24.30
2022-10-30T14:33:43.621Z,23.20
2022-10-30T14:36:18.004Z,26.10
2022-10-30T14:38:56.561Z,24.20
2022-10-30T14:41:41.140Z,25.70
2022-10-30T14:44:40.071Z,24.40
2022-10-30T14:47:21.251Z,23.40
2022-10-30T14:50:11.646Z,24.10
2022-10-30T14:53:02.349Z,24.40
2022-10-30T14:55:38.178Z,24.00
2022-10-30T14:58:04.942Z,22.60
2022-10-30T15:00:42.855Z,24.20
2022-10-30T15:03:20.365Z,23.10
2022-10-30T15:06:22.341Z,21.90
2022-10-30T15:09:13.477Z,22.60
2022-10-30T15:14:39.838Z,22.30
2022-10-30T15:17:22.959Z,23.50
2022-10-30T15:19:50.187Z,21.40
2022-10-30T15:22:20.562Z,20.70
2022-10-30T15:27:18.947Z,21.90
2022-10-30T15:29:55.173Z,21.70
2022-10-30T15:32:24.514Z,21.60
2022-10-30T15:34:59.982Z,21.50
2022-10-30T15:37:27.900Z,20.10
2022-10-30T15:40:19.062Z,21.20
2022-10-30T15:42:49.325Z,20.90
2022-10-30T15:45:37.279Z,19.70
2022-10-30T15:48:28.617Z,21.90
2022-10-30T15:51:13.774Z,19.20
2022-10-30T15:53:47.736Z,19.70
2022-10-30T15:56:25.255Z,20.20
2022-10-30T15:58:56.069Z,19.50
2022-10-30T16:01:46.853Z,19.40
2022-10-30T16:04:16.563Z,19.90
2022-10-30T16:06:53.573Z,19.70
2022-10-30T16:09:21.739Z,19.60
2022-10-30T16:11:50.660Z,19.40
2022-10-30T16:14:26.675Z,19.10
2022-10-30T16:19:29.286Z,19.00
2022-10-30T16:21:58.626Z,19.00
2022-10-30T16:24:34.363Z,18.80
2022-10-30T16:27:07.111Z,18.80
2022-10-30T16:34:37.488Z,18.60
2022-10-30T16:37:05.783Z,18.30
2022-10-30T16:39:34.135Z,19.60
2022-10-30T16:44:29.644Z,18.30
2022-10-30T16:47:22.979Z,18.20
2022-10-30T16:49:57.174Z,19.60
2022-10-30T16:52:37.489Z,18.00
2022-10-30T16:55:08.736Z,16.70
2022-10-30T16:57:43.618Z,18.00
2022-10-30T17:00:27.177Z,16.70
2022-10-30T17:02:56.119Z,16.80
2022-10-30T17:05:34.871Z,16.70
2022-10-30T17:08:24.648Z,18.80
2022-10-30T17:11:05.769Z,18.80
2022-10-30T17:16:21.882Z,19.20
2022-10-30T17:18:53.412Z,18.00
2022-10-30T17:21:41.591Z,19.10
2022-10-30T17:24:25.783Z,17.80
2022-10-30T17:26:58.575Z,17.90
2022-10-30T17:29:37.662Z,17.80
2022-10-30T17:32:06.436Z,17.80
2022-10-30T17:34:39.314Z,17.20
2022-10-30T17:37:06.283Z,16.70
2022-10-30T17:44:30.928Z,17.80
2022-10-30T17:46:57.693Z,17.10
2022-10-30T17:49:29.990Z,15.00
2022-10-30T18:04:20.680Z,18.90
2022-10-30T18:09:15.628Z,18.70
2022-10-30T18:14:11.513Z,18.10
2022-10-30T18:16:38.739Z,18.60
2022-10-30T18:19:10.430Z,17.20
2022-10-30T18:21:37.759Z,18.50
2022-10-30T18:24:11.140Z,18.30
2022-10-30T18:29:08.748Z,16.50
2022-10-30T18:38:58.375Z,18.20
2022-10-30T18:41:31.631Z,16.90
2022-10-30T18:48:53.237Z,16.50
2022-10-30T18:51:25.795Z,16.40
2022-10-30T18:53:53.636Z,17.20
2022-10-30T19:01:16.402Z,16.50
2022-10-30T19:06:19.146Z,17.80
2022-10-30T19:11:17.650Z,16.50
2022-10-30T19:16:19.816Z,16.40
2022-10-30T19:21:19.571Z,16.20
2022-10-30T19:28:42.524Z,17.10
2022-10-30T19:31:17.616Z,16.20
2022-10-30T19:33:45.125Z,15.90
2022-10-30T19:36:36.254Z,16.10
2022-10-30T19:39:10.306Z,17.00
2022-10-30T19:46:33.693Z,15.10
2022-10-30T19:51:28.903Z,16.90
2022-10-30T19:56:23.470Z,14.90
2022-10-30T20:01:17.808Z,16.20
2022-10-30T20:06:14.798Z,15.00
2022-10-30T20:08:42.196Z,14.50
2022-10-30T20:11:09.000Z,14.40
2022-10-30T20:16:05.532Z,15.50
2022-10-30T20:18:35.036Z,15.50
2022-10-30T20:21:04.497Z,15.40
2022-10-30T20:26:01.738Z,15.40
2022-10-30T20:28:30.577Z,15.50
2022-10-30T20:33:25.741Z,15.30
2022-10-30T20:35:54.663Z,15.20
2022-10-30T20:38:27.205Z,15.30
2022-10-30T20:43:31.647Z,15.10
2022-10-30T20:46:00.503Z,15.10
2022-10-30T20:48:28.304Z,15.10
2022-10-30T20:50:56.543Z,15.10
2022-10-30T21:03:14.871Z,14.90
2022-10-30T21:05:45.114Z,14.90
2022-10-30T21:08:15.911Z,15.10
2022-10-30T21:13:11.518Z,14.80
2022-10-30T21:15:43.254Z,14.50
2022-10-30T21:18:11.638Z,16.10
2022-10-30T21:20:39.253Z,14.70
2022-10-30T21:30:28.604Z,15.80
2022-10-30T21:35:22.794Z,13.50
2022-10-30T21:37:49.731Z,15.70
2022-10-30T21:50:07.799Z,14.80
2022-10-30T21:57:32.375Z,14.30
2022-10-30T22:00:01.765Z,13.10
2022-10-30T22:02:34.399Z,14.20
2022-10-30T22:24:39.125Z,13.50
2022-10-30T22:29:33.337Z,12.40
2022-10-30T22:41:49.181Z,14.50
2022-10-30T22:54:12.292Z,13.10
2022-10-30T22:56:40.702Z,12.90
2022-10-30T22:59:12.267Z,13.30
2022-10-30T23:04:09.699Z,11.70
2022-10-30T23:09:07.655Z,12.70
2022-10-30T23:11:34.668Z,12.20
2022-10-30T23:18:58.370Z,12.90
2022-10-30T23:21:27.317Z,12.60
2022-10-30T23:26:27.547Z,13.80
2022-10-30T23:28:56.122Z,12.50
2022-10-30T23:31:27.593Z,12.40
2022-10-30T23:33:57.107Z,13.60
2022-10-30T23:39:02.088Z,11.10
2022-10-30T23:41:30.730Z,12.30
2022-10-30T23:43:59.762Z,12.30
2022-10-30T23:46:27.761Z,12.30
2022-10-30T23:51:21.991Z,11.10
2022-10-30T23:53:48.862Z,12.20
2022-10-30T23:56:16.428Z,12.20
2022-10-30T23:58:44.826Z,12.00
